Terminal Aerodrome Forecast
Issued by NWS Topeka, KS

Home | Current Version | Previous Version | Graphics & Text | Print | Product List | Glossary On
Versions: 1 2 3 4 5 6 7 8 9 10 11 12 13 14 15 16 17 18 19 20 21 22 23 24 25 26 27 28 29
784
FTUS43 KTOP 181740
TAFTOP
TAF
KTOP 181740Z 1818/1918 18025G35KT P6SM SCT250
     FM190200 17015KT P6SM BKN040 WS013/20050KT
     FM190500 16015KT P6SM BKN015 WS013/21055KT
     FM190900 18015G23KT P6SM -DZ VCSH OVC010 WS013/21055KT
     FM191300 19017G25KT P6SM BKN008=

USA.gov is the U.S. government's official web portal to all federal, state and local government web resources and services.